Time;durP1;ratioP1;P1;durP2;ratioP2;P2;SDS_P1;SDS_P2;PMS_P1;PMS_P2;Temp;Humidity;BMP_temperature;BMP_pressure;BME280_temperature;BME280_humidity;BME280_pressure;Samples;Min_cycle;Max_cycle;Signal;HPM_P1;HPM_P2
2023/02/13 00:00:49;;;;;;;28.40;15.63;;;9.50;99.90;;;;;;5053988;28;20525;-51
2023/02/13 00:03:16;;;;;;;22.90;14.50;;;9.80;99.90;;;;;;5055137;28;20430;-51
2023/02/13 00:05:42;;;;;;;20.90;14.50;;;9.80;99.90;;;;;;5054190;28;20433;-51
2023/02/13 00:08:09;;;;;;;21.83;13.87;;;9.90;99.90;;;;;;5035792;28;20991;-51
2023/02/13 00:10:37;;;;;;;18.33;11.60;;;9.50;99.90;;;;;;5053986;28;20420;-50
2023/02/13 00:13:03;;;;;;;18.27;13.77;;;9.50;99.90;;;;;;5054232;28;20439;-51
2023/02/13 00:15:30;;;;;;;21.40;13.67;;;9.40;99.90;;;;;;5054018;28;20432;-52
2023/02/13 00:17:57;;;;;;;18.40;12.17;;;9.50;99.90;;;;;;5053944;28;20412;-51
2023/02/13 00:20:23;;;;;;;16.30;11.40;;;9.60;99.90;;;;;;5053178;28;20508;-50
2023/02/13 00:22:50;;;;;;;17.10;11.53;;;9.10;99.90;;;;;;5035726;28;20803;-50
2023/02/13 00:25:16;;;;;;;16.03;10.80;;;9.70;99.90;;;;;;5053365;28;20462;-51
2023/02/13 00:27:44;;;;;;;17.40;11.27;;;9.10;99.90;;;;;;5053568;28;20409;-51
2023/02/13 00:30:12;;;;;;;14.27;10.67;;;8.90;99.90;;;;;;5053070;28;21036;-52
2023/02/13 00:32:38;;;;;;;13.70;9.97;;;9.40;99.90;;;;;;5053400;28;20409;-51
2023/02/13 00:35:06;;;;;;;14.23;8.63;;;8.80;99.90;;;;;;5035387;28;20441;-51
2023/02/13 00:37:33;;;;;;;16.17;9.60;;;9.50;99.90;;;;;;5053286;28;20420;-51
2023/02/13 00:40:00;;;;;;;11.00;7.57;;;9.50;99.90;;;;;;5053308;28;20452;-51
2023/02/13 00:42:27;;;;;;;12.60;7.80;;;9.30;99.90;;;;;;5053356;28;20898;-51
2023/02/13 00:44:55;;;;;;;15.27;7.10;;;9.20;99.90;;;;;;5035160;28;20473;-51
2023/02/13 00:47:23;;;;;;;9.83;7.53;;;9.50;99.90;;;;;;5035228;28;20456;-51
2023/02/13 00:49:49;;;;;;;12.83;6.47;;;9.50;99.90;;;;;;5034773;28;20778;-50
2023/02/13 00:52:16;;;;;;;9.00;7.00;;;9.50;99.90;;;;;;5052882;28;20806;-50
2023/02/13 00:54:43;;;;;;;11.20;7.03;;;9.50;99.90;;;;;;5052951;28;20430;-51
2023/02/13 00:57:10;;;;;;;10.47;6.57;;;9.40;99.90;;;;;;5035201;28;20784;-51
2023/02/13 00:59:37;;;;;;;8.57;6.10;;;9.50;99.90;;;;;;5034767;28;20453;-51
2023/02/13 01:02:05;;;;;;;10.37;6.80;;;9.60;99.90;;;;;;5035889;28;20418;-51
2023/02/13 01:04:31;;;;;;;9.20;6.17;;;9.60;99.90;;;;;;5035872;28;20466;-52
2023/02/13 01:06:58;;;;;;;9.40;5.87;;;9.50;99.90;;;;;;5053519;28;20435;-51
2023/02/13 01:09:25;;;;;;;9.77;6.27;;;9.40;99.90;;;;;;5053817;28;20779;-52
2023/02/13 01:11:51;;;;;;;9.57;5.70;;;9.60;99.90;;;;;;5036073;28;20443;-51
2023/02/13 01:14:18;;;;;;;11.50;6.40;;;9.60;99.90;;;;;;5053362;28;20449;-51
2023/02/13 01:16:47;;;;;;;7.77;5.33;;;9.30;99.90;;;;;;5035322;28;20458;-51
2023/02/13 01:19:15;;;;;;;10.20;5.40;;;9.00;99.90;;;;;;5034465;28;20441;-51
2023/02/13 01:21:42;;;;;;;10.50;5.20;;;9.30;99.90;;;;;;5052549;28;20455;-51
2023/02/13 01:24:09;;;;;;;6.30;4.20;;;9.50;99.90;;;;;;5052525;28;21070;-52
2023/02/13 01:26:36;;;;;;;6.90;4.10;;;9.70;99.90;;;;;;5052512;28;20792;-52
2023/02/13 01:29:03;;;;;;;7.90;4.60;;;9.30;99.90;;;;;;5034153;28;20421;-51
2023/02/13 01:31:29;;;;;;;7.23;4.57;;;9.30;99.90;;;;;;5034433;28;20811;-51
2023/02/13 01:33:57;;;;;;;5.40;3.97;;;9.40;99.90;;;;;;5034443;28;20451;-51
2023/02/13 01:36:26;;;;;;;4.27;3.43;;;9.60;99.90;;;;;;5034358;28;20872;-51
2023/02/13 01:38:55;;;;;;;5.47;3.70;;;9.60;99.90;;;;;;5051968;28;20937;-51
2023/02/13 01:41:22;;;;;;;4.93;3.37;;;8.90;99.90;;;;;;5052274;28;20412;-51
2023/02/13 01:43:52;;;;;;;9.00;4.10;;;8.80;99.90;;;;;;5034246;28;20820;-52
2023/02/13 01:46:25;;;;;;;7.73;4.23;;;9.20;99.90;;;;;;5034586;28;20421;-52
2023/02/13 01:48:55;;;;;;;4.67;3.53;;;9.30;99.90;;;;;;5051807;28;20760;-51
2023/02/13 01:51:28;;;;;;;6.53;4.60;;;9.50;99.90;;;;;;5034517;28;20439;-51
2023/02/13 01:53:59;;;;;;;6.67;4.17;;;9.20;99.90;;;;;;5052160;28;20430;-52
2023/02/13 01:56:32;;;;;;;7.20;4.20;;;9.40;99.90;;;;;;5034447;28;20425;-52
2023/02/13 01:59:02;;;;;;;7.57;4.73;;;8.60;99.90;;;;;;5052100;28;20477;-52
2023/02/13 02:01:29;;;;;;;7.30;4.50;;;9.20;99.90;;;;;;5034234;28;20973;-52
2023/02/13 02:04:00;;;;;;;6.80;4.20;;;9.40;99.90;;;;;;5034339;28;20453;-52
2023/02/13 02:06:35;;;;;;;7.87;4.70;;;9.50;99.90;;;;;;5034234;28;20432;-52
2023/02/13 02:09:06;;;;;;;6.40;4.00;;;9.40;99.90;;;;;;5034096;28;20806;-52
2023/02/13 02:11:39;;;;;;;5.30;4.20;;;9.10;99.90;;;;;;5033984;28;20796;-52
2023/02/13 02:16:37;;;;;;;6.60;3.97;;;9.10;99.90;;;;;;5072130;28;20453;-48
2023/02/13 02:19:08;;;;;;;5.60;3.73;;;9.40;99.90;;;;;;5057552;28;20473;-47
2023/02/13 02:22:06;;;;;;;4.60;3.60;;;9.40;99.90;;;;;;5058104;28;20544;-48
2023/02/13 02:25:01;;;;;;;5.90;3.93;;;9.30;99.90;;;;;;5058104;28;20455;-49
2023/02/13 02:27:56;;;;;;;4.60;3.43;;;9.50;99.90;;;;;;5058081;28;20447;-48
2023/02/13 02:30:58;;;;;;;5.30;3.33;;;9.50;99.90;;;;;;5058190;28;20449;-48
2023/02/13 02:33:36;;;;;;;5.83;3.87;;;9.10;99.90;;;;;;5076797;28;20426;-47
2023/02/13 02:36:17;;;;;;;5.40;4.60;;;9.20;99.90;;;;;;5058030;28;20448;-48
2023/02/13 02:39:01;;;;;;;5.93;4.03;;;9.20;99.90;;;;;;5057190;28;20441;-48
2023/02/13 02:41:41;;;;;;;5.53;4.33;;;9.10;99.90;;;;;;5057678;28;20437;-47
2023/02/13 02:44:33;;;;;;;10.13;5.30;;;9.20;99.90;;;;;;5057578;28;20515;-48
2023/02/13 02:50:25;;;;;;;7.03;4.83;;;9.30;99.90;;;;;;4984634;28;20473;-47
2023/02/13 02:53:01;;;;;;;8.57;5.10;;;9.60;99.90;;;;;;5058276;28;20975;-48
2023/02/13 02:55:36;;;;;;;6.10;4.63;;;9.20;99.90;;;;;;5057863;28;20473;-48
2023/02/13 03:06:46;;;;;;;7.60;5.70;;;8.90;99.90;;;;;;4993658;28;20490;-49
2023/02/13 03:14:47;;;;;;;9.40;6.47;;;8.90;99.90;;;;;;5074998;28;20792;-48
2023/02/13 03:23:13;;;;;;;7.50;6.03;;;8.80;99.90;;;;;;5074612;28;20938;-48
2023/02/13 03:25:54;;;;;;;9.90;6.63;;;8.80;99.90;;;;;;5074660;28;20505;-49
2023/02/13 03:31:21;;;;;;;9.30;5.57;;;9.20;99.90;;;;;;5074798;28;20433;-48
2023/02/13 03:33:59;;;;;;;9.80;6.87;;;9.00;99.90;;;;;;5074866;28;20415;-48
2023/02/13 03:39:23;;;;;;;9.70;5.80;;;9.00;99.90;;;;;;5074762;28;20447;-48
2023/02/13 03:41:55;;;;;;;7.67;6.10;;;8.90;99.90;;;;;;5074546;28;20415;-48
2023/02/13 03:44:30;;;;;;;10.53;7.27;;;9.20;99.90;;;;;;5074372;28;20495;-48
2023/02/13 03:47:00;;;;;;;9.20;6.50;;;9.20;99.90;;;;;;5074318;28;20436;-48
2023/02/13 03:52:22;;;;;;;7.13;6.00;;;9.40;99.90;;;;;;5074466;28;20522;-49
2023/02/13 04:00:32;;;;;;;8.57;6.37;;;8.90;99.90;;;;;;5073784;28;20470;-48
2023/02/13 04:03:08;;;;;;;8.17;6.67;;;9.00;99.90;;;;;;5073999;28;20400;-48
2023/02/13 04:05:41;;;;;;;8.03;6.90;;;8.70;99.90;;;;;;5073856;28;20449;-48
2023/02/13 04:08:08;;;;;;;8.40;6.83;;;9.00;99.90;;;;;;5073565;28;20893;-47
2023/02/13 04:10:43;;;;;;;10.17;7.53;;;8.20;99.90;;;;;;5073714;28;20431;-47
2023/02/13 04:13:15;;;;;;;9.80;6.93;;;8.70;99.90;;;;;;5073816;28;20403;-48
2023/02/13 04:15:46;;;;;;;9.10;6.80;;;8.90;99.90;;;;;;5073814;28;20484;-47
2023/02/13 04:18:17;;;;;;;10.30;7.60;;;8.90;99.90;;;;;;5073263;28;20407;-48
2023/02/13 04:20:44;;;;;;;9.60;7.87;;;9.00;99.90;;;;;;5073439;28;20559;-48
2023/02/13 04:23:12;;;;;;;10.17;6.67;;;8.70;99.90;;;;;;5055611;28;20441;-48
2023/02/13 04:25:43;;;;;;;9.37;7.10;;;8.30;99.90;;;;;;5073582;28;20541;-47
2023/02/13 04:28:10;;;;;;;12.53;8.17;;;8.70;99.90;;;;;;5073159;28;20448;-48
2023/02/13 04:30:38;;;;;;;10.60;8.73;;;9.10;99.90;;;;;;5073544;28;20439;-47
2023/02/13 04:33:04;;;;;;;11.87;9.17;;;8.90;99.90;;;;;;5073460;28;20405;-48
2023/02/13 04:35:31;;;;;;;11.37;8.23;;;8.50;99.90;;;;;;5073240;28;20464;-48
2023/02/13 04:37:57;;;;;;;10.70;9.60;;;8.90;99.90;;;;;;5072691;28;20448;-47
2023/02/13 04:40:24;;;;;;;12.23;9.53;;;8.70;99.90;;;;;;5072938;28;20494;-49
2023/02/13 04:42:52;;;;;;;10.80;8.53;;;9.10;99.90;;;;;;5073115;28;20437;-48
2023/02/13 04:45:19;;;;;;;13.30;9.20;;;8.80;99.90;;;;;;5073154;28;20458;-47
2023/02/13 04:47:50;;;;;;;12.80;10.67;;;8.90;99.90;;;;;;5073102;28;20937;-46
2023/02/13 04:50:17;;;;;;;15.00;10.97;;;8.90;99.90;;;;;;5072569;28;20470;-48
2023/02/13 04:52:44;;;;;;;14.67;11.87;;;9.00;99.90;;;;;;5073136;28;20401;-48
2023/02/13 04:55:11;;;;;;;14.17;10.90;;;8.80;99.90;;;;;;5073058;28;20454;-48
2023/02/13 04:57:38;;;;;;;16.77;12.10;;;8.90;99.90;;;;;;5074320;28;20400;-48
2023/02/13 05:00:10;;;;;;;12.60;11.30;;;8.50;99.90;;;;;;5073401;28;20472;-47
2023/02/13 05:02:37;;;;;;;13.47;11.70;;;9.00;99.90;;;;;;5074133;28;20411;-48
2023/02/13 05:05:04;;;;;;;19.00;13.17;;;9.00;99.90;;;;;;5073280;28;20432;-48
2023/02/13 05:07:30;;;;;;;15.40;12.13;;;9.10;99.90;;;;;;5055096;28;20955;-49
2023/02/13 05:09:57;;;;;;;15.23;12.00;;;8.70;99.90;;;;;;5072435;28;20436;-48
2023/02/13 05:12:23;;;;;;;14.07;11.83;;;8.20;99.90;;;;;;5072331;28;20430;-48
2023/02/13 05:14:50;;;;;;;13.10;11.20;;;9.00;99.90;;;;;;5054445;28;21009;-48
2023/02/13 05:17:18;;;;;;;16.30;10.60;;;8.70;99.90;;;;;;5072428;28;20408;-48
2023/02/13 05:19:45;;;;;;;18.80;13.63;;;8.70;99.90;;;;;;5071872;28;20412;-49
2023/02/13 05:24:55;;;;;;;15.60;11.20;;;9.00;99.90;;;;;;5072278;28;20464;-48
2023/02/13 05:27:22;;;;;;;14.60;10.07;;;8.30;99.90;;;;;;5072391;28;20973;-48
2023/02/13 05:29:49;;;;;;;14.57;11.57;;;8.70;99.90;;;;;;5071955;28;20409;-49
2023/02/13 05:32:15;;;;;;;13.50;10.23;;;8.90;99.90;;;;;;5072351;28;20460;-49
2023/02/13 05:34:43;;;;;;;15.37;10.50;;;8.60;99.90;;;;;;5054226;28;20469;-48
2023/02/13 05:37:10;;;;;;;17.37;11.03;;;8.80;99.90;;;;;;5072077;28;20408;-48
2023/02/13 05:39:36;;;;;;;12.97;10.10;;;8.90;99.90;;;;;;5071712;28;20437;-47
2023/02/13 05:42:04;;;;;;;14.37;9.90;;;9.20;99.90;;;;;;5071970;28;20855;-48
2023/02/13 05:44:31;;;;;;;12.70;9.80;;;9.00;99.90;;;;;;5072081;28;20935;-48
2023/02/13 05:46:58;;;;;;;13.20;8.97;;;8.70;99.90;;;;;;5072579;28;20772;-48
2023/02/13 05:49:24;;;;;;;15.60;10.13;;;8.90;99.90;;;;;;5071164;28;20444;-48
2023/02/13 05:51:52;;;;;;;14.93;9.80;;;9.50;99.90;;;;;;5071634;28;20404;-48
2023/02/13 05:54:19;;;;;;;11.50;9.27;;;8.90;99.90;;;;;;5071711;28;20411;-49
2023/02/13 05:56:46;;;;;;;11.53;8.30;;;9.20;99.90;;;;;;5054524;28;20448;-48
2023/02/13 05:59:12;;;;;;;11.00;9.20;;;9.00;99.90;;;;;;5072341;28;20430;-48
2023/02/13 06:01:39;;;;;;;10.73;7.60;;;9.10;99.90;;;;;;5072499;28;20482;-48
2023/02/13 06:04:06;;;;;;;14.33;9.10;;;9.20;99.90;;;;;;5072212;28;20441;-48
2023/02/13 06:06:33;;;;;;;14.43;10.10;;;9.30;99.90;;;;;;5071784;28;20439;-48
2023/02/13 06:09:01;;;;;;;12.80;9.23;;;9.20;99.90;;;;;;5071873;28;20404;-49
2023/02/13 06:11:27;;;;;;;11.47;9.23;;;8.80;99.90;;;;;;5072145;28;20409;-48
2023/02/13 06:13:54;;;;;;;13.47;8.77;;;9.20;99.90;;;;;;5072019;28;20433;-49
2023/02/13 06:16:21;;;;;;;13.53;8.37;;;9.40;99.90;;;;;;5071740;28;20444;-48
2023/02/13 06:18:48;;;;;;;13.33;9.47;;;8.90;99.90;;;;;;5053461;28;20450;-48
2023/02/13 06:21:14;;;;;;;12.57;8.17;;;9.00;99.90;;;;;;5053960;28;21000;-48
2023/02/13 06:23:41;;;;;;;12.80;8.13;;;9.20;99.90;;;;;;5072085;28;20481;-48
2023/02/13 06:26:09;;;;;;;10.60;7.93;;;8.90;99.90;;;;;;5073054;28;20953;-48
2023/02/13 06:28:36;;;;;;;11.67;8.63;;;9.30;99.90;;;;;;5072444;28;20430;-49
2023/02/13 06:31:03;;;;;;;9.37;7.63;;;9.10;99.90;;;;;;5054344;28;20456;-49
2023/02/13 06:33:29;;;;;;;9.83;7.50;;;8.90;99.90;;;;;;5071802;28;20438;-48
2023/02/13 06:35:56;;;;;;;10.73;8.93;;;9.20;99.90;;;;;;5071758;28;20969;-48
2023/02/13 06:38:23;;;;;;;9.87;8.87;;;8.80;99.90;;;;;;5071149;28;20438;-49
2023/02/13 06:40:50;;;;;;;11.30;8.10;;;9.20;99.90;;;;;;5071613;28;20953;-48
2023/02/13 06:43:18;;;;;;;10.03;8.57;;;9.20;99.90;;;;;;5071131;28;20449;-48
2023/02/13 06:45:46;;;;;;;11.33;7.63;;;9.00;99.90;;;;;;5071109;28;20449;-49
2023/02/13 06:48:13;;;;;;;14.80;8.30;;;8.90;99.90;;;;;;5071477;28;20416;-47
2023/02/13 06:50:39;;;;;;;19.13;8.77;;;9.40;99.90;;;;;;5071644;28;20491;-48
2023/02/13 06:53:06;;;;;;;12.57;8.73;;;9.00;99.90;;;;;;5071293;28;20436;-50
2023/02/13 06:55:32;;;;;;;11.17;9.23;;;8.80;99.90;;;;;;5070571;28;20453;-48
2023/02/13 06:57:59;;;;;;;10.83;8.70;;;9.10;99.90;;;;;;5071196;28;20498;-48
2023/02/13 07:00:27;;;;;;;11.97;8.70;;;8.90;99.90;;;;;;5070879;28;20867;-48
2023/02/13 07:02:54;;;;;;;13.50;8.60;;;8.90;99.90;;;;;;5075048;28;20433;-48
2023/02/13 07:05:20;;;;;;;11.20;8.97;;;8.80;99.90;;;;;;5075013;28;20468;-48
2023/02/13 07:07:47;;;;;;;10.10;7.73;;;9.10;99.90;;;;;;5074873;28;20440;-49
2023/02/13 07:10:14;;;;;;;13.47;8.10;;;9.40;99.90;;;;;;5074949;28;20430;-49
2023/02/13 07:12:41;;;;;;;12.30;9.60;;;9.10;99.90;;;;;;5075064;28;20434;-48
2023/02/13 07:15:08;;;;;;;12.33;8.53;;;8.80;99.90;;;;;;5074582;28;20464;-49
2023/02/13 07:17:36;;;;;;;16.40;10.80;;;9.20;99.90;;;;;;5074460;28;20437;-48
2023/02/13 07:20:04;;;;;;;11.67;8.67;;;8.80;99.90;;;;;;5075396;28;20411;-49
2023/02/13 07:22:32;;;;;;;12.67;10.23;;;9.30;99.90;;;;;;5075475;28;20482;-48
2023/02/13 07:24:59;;;;;;;14.07;10.27;;;9.40;99.90;;;;;;5074379;28;20453;-48
2023/02/13 07:27:28;;;;;;;13.17;10.60;;;9.00;99.90;;;;;;5074549;28;20425;-48
2023/02/13 07:29:55;;;;;;;14.10;9.30;;;8.50;99.90;;;;;;5073801;28;20473;-49
2023/02/13 07:32:21;;;;;;;8.70;7.67;;;9.40;99.90;;;;;;5074511;28;20429;-49
2023/02/13 07:34:50;;;;;;;9.73;7.30;;;9.50;99.90;;;;;;5055958;28;20473;-48
2023/02/13 07:37:16;;;;;;;10.00;8.37;;;9.20;99.90;;;;;;5074272;28;20782;-49
2023/02/13 07:39:43;;;;;;;13.03;8.80;;;9.00;99.90;;;;;;5073788;28;20525;-49
2023/02/13 07:42:10;;;;;;;17.07;9.50;;;9.40;99.90;;;;;;5074028;28;20505;-48
2023/02/13 07:44:36;;;;;;;11.70;8.20;;;9.30;99.90;;;;;;5074001;28;20450;-47
2023/02/13 07:47:03;;;;;;;17.60;8.63;;;9.60;99.90;;;;;;5074524;28;20433;-48
2023/02/13 07:49:30;;;;;;;10.43;8.77;;;9.20;99.90;;;;;;5073864;28;20934;-48
2023/02/13 07:51:58;;;;;;;10.00;8.60;;;9.10;99.90;;;;;;5074552;28;20839;-48
2023/02/13 07:54:25;;;;;;;12.23;8.27;;;9.20;99.90;;;;;;5074089;28;20441;-48
2023/02/13 07:56:51;;;;;;;14.33;8.73;;;9.20;99.90;;;;;;5073914;28;20420;-49
2023/02/13 07:59:18;;;;;;;13.00;8.83;;;9.70;99.90;;;;;;5073628;28;20503;-49
2023/02/13 08:01:44;;;;;;;10.37;8.30;;;9.70;99.90;;;;;;5073959;28;20474;-48
2023/02/13 08:04:11;;;;;;;12.20;7.87;;;9.20;99.90;;;;;;5075006;28;20408;-49
2023/02/13 08:06:39;;;;;;;12.63;8.43;;;9.60;99.90;;;;;;5073909;28;20412;-49
2023/02/13 08:11:53;;;;;;;12.90;9.47;;;9.30;99.90;;;;;;5073593;28;20420;-48
2023/02/13 08:14:20;;;;;;;12.50;8.97;;;9.40;99.90;;;;;;5072704;28;20413;-47
2023/02/13 08:16:46;;;;;;;11.90;9.40;;;8.80;99.90;;;;;;5073974;28;20451;-49
2023/02/13 08:19:13;;;;;;;12.30;7.70;;;9.60;99.90;;;;;;5072879;28;20433;-48
2023/02/13 08:21:40;;;;;;;12.73;8.43;;;9.70;99.90;;;;;;5073088;28;20448;-48
2023/02/13 08:24:08;;;;;;;13.63;8.33;;;9.80;99.90;;;;;;5073348;28;20476;-48
2023/02/13 08:26:35;;;;;;;14.67;7.50;;;9.40;99.90;;;;;;5073464;28;20420;-48
2023/02/13 08:29:02;;;;;;;10.07;7.00;;;9.20;99.90;;;;;;5072914;28;20411;-49
2023/02/13 08:31:28;;;;;;;7.90;7.10;;;9.80;99.90;;;;;;5073085;28;20915;-48
2023/02/13 08:33:56;;;;;;;11.53;8.07;;;9.40;99.90;;;;;;5073299;28;20437;-49
2023/02/13 08:36:23;;;;;;;12.27;7.97;;;9.60;99.90;;;;;;5073191;28;20461;-47
2023/02/13 08:38:50;;;;;;;15.23;8.63;;;9.60;99.90;;;;;;5054981;28;20449;-47
2023/02/13 08:41:19;;;;;;;13.97;8.80;;;9.60;99.90;;;;;;5072919;28;20489;-47
2023/02/13 08:43:46;;;;;;;12.10;8.73;;;9.50;99.90;;;;;;5073030;28;20828;-48
2023/02/13 08:46:13;;;;;;;14.00;7.87;;;9.40;99.90;;;;;;5072926;28;20810;-47
2023/02/13 08:48:40;;;;;;;10.23;8.20;;;9.60;99.90;;;;;;5072523;28;20443;-50
2023/02/13 08:51:07;;;;;;;17.50;7.70;;;10.00;99.90;;;;;;5054764;28;20496;-47
2023/02/13 08:53:34;;;;;;;11.90;7.60;;;9.60;99.90;;;;;;5054136;28;20442;-48
2023/02/13 08:56:01;;;;;;;10.70;7.90;;;9.60;99.90;;;;;;5072961;28;20432;-48
2023/02/13 08:58:29;;;;;;;19.63;8.70;;;9.50;99.90;;;;;;5071770;28;20475;-48
2023/02/13 09:00:56;;;;;;;17.03;9.63;;;9.50;99.90;;;;;;5072688;28;20510;-49
2023/02/13 09:03:24;;;;;;;17.00;10.77;;;9.70;99.90;;;;;;5054799;28;20450;-48
2023/02/13 09:05:50;;;;;;;13.00;8.33;;;9.70;99.90;;;;;;5072287;28;20472;-48
2023/02/13 09:08:17;;;;;;;15.47;10.03;;;10.20;99.90;;;;;;5072665;28;20407;-48
2023/02/13 09:10:43;;;;;;;14.30;10.77;;;9.90;99.90;;;;;;5054845;28;20445;-47
2023/02/13 09:13:10;;;;;;;17.80;11.50;;;9.40;99.90;;;;;;5072763;28;20917;-48
2023/02/13 09:15:39;;;;;;;16.08;11.50;;;10.10;99.90;;;;;;5071524;28;20430;-48
2023/02/13 09:18:07;;;;;;;16.70;11.30;;;9.80;99.90;;;;;;5070880;28;20942;-49
2023/02/13 09:20:34;;;;;;;14.57;10.60;;;10.50;99.90;;;;;;5072754;28;20198;-49
2023/02/13 09:23:01;;;;;;;16.50;11.20;;;10.50;99.90;;;;;;5072749;28;20860;-47
2023/02/13 09:25:27;;;;;;;14.37;10.67;;;10.40;99.90;;;;;;5072318;28;20453;-47
2023/02/13 09:27:54;;;;;;;14.63;10.03;;;9.70;99.90;;;;;;5072096;28;20438;-48
2023/02/13 09:30:22;;;;;;;14.33;10.13;;;9.90;99.90;;;;;;5072303;28;20441;-48
2023/02/13 09:32:52;;;;;;;15.63;11.68;;;10.10;99.90;;;;;;5070819;28;20420;-47
2023/02/13 09:35:20;;;;;;;13.33;9.70;;;10.10;99.90;;;;;;5072403;28;20216;-48
2023/02/13 09:37:47;;;;;;;15.47;9.90;;;10.40;99.90;;;;;;5072612;28;20419;-48
2023/02/13 09:40:19;;;;;;;18.50;9.43;;;10.20;99.90;;;;;;5071563;28;20428;-48
2023/02/13 09:42:48;;;;;;;14.23;11.73;;;10.10;99.90;;;;;;5071093;28;20923;-48
2023/02/13 09:45:16;;;;;;;13.90;10.75;;;10.50;99.90;;;;;;5071815;28;20418;-48
2023/02/13 09:47:45;;;;;;;16.40;11.30;;;10.30;99.90;;;;;;5072277;28;20203;-48
2023/02/13 09:50:18;;;;;;;12.50;9.87;;;10.20;99.90;;;;;;5071573;28;20473;-48
2023/02/13 09:52:46;;;;;;;11.93;10.23;;;10.30;99.90;;;;;;5071513;28;20840;-47
2023/02/13 09:55:18;;;;;;;16.23;11.97;;;9.50;99.90;;;;;;5071473;28;20462;-48
2023/02/13 09:57:50;;;;;;;16.20;11.03;;;10.00;99.90;;;;;;5071711;28;20490;-47
2023/02/13 10:00:21;;;;;;;16.07;10.17;;;10.10;99.90;;;;;;5053289;28;20458;-48
2023/02/13 10:03:05;;;;;;;13.33;9.57;;;9.90;99.90;;;;;;5071737;28;20452;-48
2023/02/13 10:05:46;;;;;;;13.50;9.60;;;10.10;99.90;;;;;;5071817;28;20461;-47
2023/02/13 10:08:25;;;;;;;18.00;12.07;;;10.00;99.90;;;;;;5071532;28;20802;-47
2023/02/13 10:10:55;;;;;;;18.80;11.90;;;10.00;99.90;;;;;;5071585;28;20404;-48
2023/02/13 10:13:35;;;;;;;13.47;10.20;;;9.90;99.90;;;;;;5071671;28;20840;-48
2023/02/13 10:16:08;;;;;;;15.20;10.27;;;9.80;99.90;;;;;;5071605;28;20470;-48
2023/02/13 10:18:45;;;;;;;15.20;11.07;;;10.20;99.90;;;;;;5071126;28;21054;-48
2023/02/13 10:21:14;;;;;;;15.27;12.00;;;10.00;99.90;;;;;;5070662;28;21005;-49
2023/02/13 10:23:45;;;;;;;14.73;10.30;;;10.00;99.90;;;;;;5071431;28;20200;-48
2023/02/13 10:26:19;;;;;;;16.60;10.50;;;10.10;99.90;;;;;;5071614;28;20453;-48
2023/02/13 10:30:03;;;;;;;17.43;12.00;;;9.80;99.90;;;;;;5053299;28;20487;-49
2023/02/13 10:31:39;;;;;;;16.47;11.40;;;9.70;99.90;;;;;;5071317;28;20450;-47
2023/02/13 10:34:12;;;;;;;18.70;11.33;;;10.30;99.90;;;;;;5071451;28;20922;-48
2023/02/13 10:36:44;;;;;;;15.73;11.03;;;9.90;99.90;;;;;;5072464;28;20408;-49
2023/02/13 10:39:22;;;;;;;16.37;11.43;;;9.60;99.90;;;;;;5056917;28;20424;-48
2023/02/13 10:41:53;;;;;;;18.73;11.20;;;10.00;99.90;;;;;;5074811;28;20535;-48
2023/02/13 10:44:36;;;;;;;17.37;11.57;;;10.20;99.90;;;;;;5075004;28;20451;-49
2023/02/13 10:47:16;;;;;;;18.35;13.95;;;10.30;99.90;;;;;;5074270;28;20753;-48
2023/02/13 10:50:02;;;;;;;15.03;11.20;;;10.10;99.90;;;;;;5074896;28;20192;-48
2023/02/13 10:52:44;;;;;;;14.87;12.40;;;9.60;99.90;;;;;;5074737;28;20416;-49
2023/02/13 10:55:39;;;;;;;14.60;11.88;;;10.10;99.90;;;;;;5073544;28;20396;-49
2023/02/13 10:58:15;;;;;;;14.00;10.90;;;10.40;99.90;;;;;;5074919;28;20411;-47
2023/02/13 11:00:49;;;;;;;12.87;10.20;;;10.30;99.90;;;;;;5074976;28;20432;-48
2023/02/13 11:03:34;;;;;;;15.27;10.20;;;10.20;99.90;;;;;;5075030;28;20475;-48
2023/02/13 11:06:07;;;;;;;15.10;11.03;;;10.50;99.90;;;;;;5057378;28;20475;-48
2023/02/13 11:08:41;;;;;;;16.10;10.90;;;10.20;99.90;;;;;;5074855;28;20755;-47
2023/02/13 11:11:31;;;;;;;15.83;11.30;;;10.10;99.90;;;;;;5056974;28;20453;-47
2023/02/13 11:14:10;;;;;;;17.33;11.60;;;10.10;99.90;;;;;;5074791;28;20403;-47
2023/02/13 11:16:50;;;;;;;14.03;11.07;;;10.10;99.90;;;;;;5075077;28;20249;-50
2023/02/13 11:19:24;;;;;;;17.00;13.63;;;9.90;99.90;;;;;;5073606;28;20503;-49
2023/02/13 11:21:56;;;;;;;18.60;13.87;;;10.50;99.90;;;;;;5074290;28;20550;-50
2023/02/13 11:24:26;;;;;;;18.67;11.90;;;10.60;99.90;;;;;;5056295;28;20814;-47
2023/02/13 11:26:57;;;;;;;17.03;11.83;;;10.00;99.90;;;;;;5074552;28;20409;-50
2023/02/13 11:29:27;;;;;;;14.60;11.60;;;10.00;99.90;;;;;;5055858;28;20426;-48
2023/02/13 11:32:21;;;;;;;18.23;13.50;;;10.00;99.90;;;;;;5074108;28;20406;-48
2023/02/13 11:34:50;;;;;;;16.67;12.83;;;10.10;99.90;;;;;;5073971;28;20449;-49
2023/02/13 11:37:23;;;;;;;16.90;12.60;;;10.50;99.90;;;;;;5073888;28;20461;-47
2023/02/13 11:39:53;;;;;;;18.10;13.70;;;10.30;99.90;;;;;;5073777;28;20441;-48
2023/02/13 11:42:25;;;;;;;18.17;13.90;;;10.10;99.90;;;;;;5073728;28;20482;-50
2023/02/13 11:44:54;;;;;;;15.93;13.57;;;10.10;99.90;;;;;;5074109;28;20777;-48
2023/02/13 11:47:39;;;;;;;28.30;18.40;;;10.10;99.90;;;;;;5073365;28;20503;-48
2023/02/13 11:50:20;;;;;;;18.13;15.43;;;9.60;99.90;;;;;;5073362;28;20447;-48
2023/02/13 11:52:55;;;;;;;18.70;14.87;;;9.90;99.90;;;;;;5055526;28;20926;-49
2023/02/13 11:55:29;;;;;;;19.90;15.53;;;10.30;99.90;;;;;;5074044;28;20479;-48
2023/02/13 11:57:58;;;;;;;17.80;14.43;;;10.30;99.90;;;;;;5073910;28;20408;-48
2023/02/13 12:00:29;;;;;;;27.03;16.80;;;10.10;99.90;;;;;;5073309;28;20938;-48
2023/02/13 12:02:56;;;;;;;19.83;14.10;;;10.20;99.90;;;;;;5074270;28;20479;-49
2023/02/13 12:05:24;;;;;;;19.08;15.85;;;10.20;99.90;;;;;;5072782;28;20768;-48
2023/02/13 12:07:51;;;;;;;18.83;15.17;;;10.00;99.90;;;;;;5073617;28;20195;-49
2023/02/13 12:10:22;;;;;;;20.03;15.93;;;10.40;99.90;;;;;;5073433;28;20457;-50
2023/02/13 12:12:55;;;;;;;23.00;15.97;;;10.80;99.90;;;;;;5073493;28;20902;-48
2023/02/13 12:15:24;;;;;;;16.63;14.37;;;10.90;99.90;;;;;;5073151;28;20811;-48
2023/02/13 12:18:03;;;;;;;22.23;15.07;;;10.40;99.90;;;;;;5072892;28;20774;-47
2023/02/13 12:20:41;;;;;;;19.10;15.17;;;10.40;99.90;;;;;;5072927;28;20462;-48
2023/02/13 12:23:17;;;;;;;18.47;14.37;;;10.70;99.90;;;;;;5073061;28;20475;-49
2023/02/13 12:25:53;;;;;;;19.07;15.63;;;9.70;99.90;;;;;;5073102;28;20504;-47
2023/02/13 12:28:28;;;;;;;22.57;17.07;;;10.10;99.90;;;;;;5072929;28;20953;-47
2023/02/13 12:31:24;;;;;;;23.48;15.80;;;10.10;99.90;;;;;;5073149;28;20425;-49
2023/02/13 12:34:32;;;;;;;21.00;17.10;;;10.10;99.90;;;;;;5072371;28;20418;-49
2023/02/13 12:37:15;;;;;;;18.75;16.15;;;10.30;99.90;;;;;;5051029;28;20446;-48
2023/02/13 12:39:53;;;;;;;20.77;15.87;;;10.00;99.90;;;;;;5072734;28;20211;-48
2023/02/13 12:42:27;;;;;;;22.13;15.33;;;10.60;99.90;;;;;;5072995;28;20446;-49
2023/02/13 12:45:22;;;;;;;21.63;14.57;;;10.30;99.90;;;;;;5072714;28;20454;-48
2023/02/13 12:48:09;;;;;;;20.70;14.93;;;10.20;99.90;;;;;;5072637;28;20435;-48
2023/02/13 12:50:52;;;;;;;20.40;14.37;;;10.40;99.90;;;;;;5072890;28;20811;-49
2023/02/13 12:53:41;;;;;;;20.97;16.17;;;10.50;99.90;;;;;;5072640;28;20420;-49
2023/02/13 12:56:39;;;;;;;22.75;16.65;;;10.80;99.90;;;;;;5072284;28;20433;-49
2023/02/13 12:59:14;;;;;;;19.73;15.47;;;10.40;99.90;;;;;;5046885;28;20221;-49
2023/02/13 13:02:10;;;;;;;23.83;17.33;;;10.30;99.90;;;;;;5072258;28;20421;-47
2023/02/13 13:04:48;;;;;;;19.53;15.27;;;10.20;99.90;;;;;;5064754;28;20474;-48
2023/02/13 13:07:34;;;;;;;21.57;16.10;;;10.30;99.90;;;;;;5072561;28;20456;-48
2023/02/13 13:10:16;;;;;;;23.83;15.03;;;10.20;99.90;;;;;;5071746;28;20435;-47
2023/02/13 13:12:54;;;;;;;20.87;16.47;;;10.20;99.90;;;;;;5072736;28;20450;-48
2023/02/13 13:15:32;;;;;;;22.03;15.10;;;10.60;99.90;;;;;;5072301;28;20472;-48
2023/02/13 13:18:13;;;;;;;20.50;15.27;;;10.70;99.90;;;;;;5072109;28;20404;-49
2023/02/13 13:20:58;;;;;;;18.90;14.87;;;10.00;99.90;;;;;;5054073;28;20495;-48
2023/02/13 13:23:32;;;;;;;21.27;15.50;;;10.10;99.90;;;;;;5072223;28;20983;-48
2023/02/13 13:26:09;;;;;;;22.50;16.60;;;10.70;99.90;;;;;;5071573;28;20422;-48
2023/02/13 13:28:39;;;;;;;22.03;16.07;;;10.20;99.90;;;;;;5071723;28;20218;-48
2023/02/13 13:31:06;;;;;;;22.33;15.67;;;10.30;99.90;;;;;;5071857;28;20438;-48
2023/02/13 13:33:38;;;;;;;19.10;15.20;;;10.50;99.90;;;;;;5072063;28;20453;-48
2023/02/13 13:36:11;;;;;;;20.37;15.20;;;10.20;99.90;;;;;;5071680;28;20477;-49
2023/02/13 13:38:50;;;;;;;22.27;14.87;;;10.40;99.90;;;;;;5071616;28;20408;-48
2023/02/13 13:41:22;;;;;;;20.70;15.47;;;10.50;99.90;;;;;;5071328;28;20442;-49
2023/02/13 13:44:02;;;;;;;23.97;16.47;;;10.10;99.90;;;;;;5071502;28;20456;-48
2023/02/13 13:46:40;;;;;;;20.17;15.70;;;9.90;99.90;;;;;;5071415;28;20416;-48